sensor_id;sensor_type;location;lat;lon;timestamp;pressure;altitude;pressure_sealevel;temperature;humidity
77325;BME280;66387;53.440;10.390;2023-07-20T00:01:08;100565.41;;;13.89;99.25
77325;BME280;66387;53.440;10.390;2023-07-20T00:03:33;100570.69;;;13.87;99.62
77325;BME280;66387;53.440;10.390;2023-07-20T00:05:58;100561.25;;;13.82;100.00
77325;BME280;66387;53.440;10.390;2023-07-20T00:08:23;100562.84;;;13.87;99.47
77325;BME280;66387;53.440;10.390;2023-07-20T00:10:49;100560.06;;;13.93;99.54
77325;BME280;66387;53.440;10.390;2023-07-20T00:13:14;100551.34;;;13.94;99.73
77325;BME280;66387;53.440;10.390;2023-07-20T00:15:41;100547.75;;;13.98;99.48
77325;BME280;66387;53.440;10.390;2023-07-20T00:18:06;100551.34;;;13.94;99.09
77325;BME280;66387;53.440;10.390;2023-07-20T00:20:32;100550.22;;;14.03;99.32
77325;BME280;66387;53.440;10.390;2023-07-20T00:22:57;100544.06;;;14.05;98.41
77325;BME280;66387;53.440;10.390;2023-07-20T00:25:23;100543.16;;;14.06;98.44
77325;BME280;66387;53.440;10.390;2023-07-20T00:27:49;100552.00;;;14.02;98.51
77325;BME280;66387;53.440;10.390;2023-07-20T00:30:14;100557.25;;;14.01;98.69
77325;BME280;66387;53.440;10.390;2023-07-20T00:32:39;100556.34;;;14.02;98.91
77325;BME280;66387;53.440;10.390;2023-07-20T00:35:05;100557.13;;;14.05;98.38
77325;BME280;66387;53.440;10.390;2023-07-20T00:37:31;100551.06;;;14.05;98.79
77325;BME280;66387;53.440;10.390;2023-07-20T00:39:56;100561.50;;;14.05;98.59
77325;BME280;66387;53.440;10.390;2023-07-20T00:42:21;100559.84;;;14.02;98.72
77325;BME280;66387;53.440;10.390;2023-07-20T00:44:47;100543.25;;;14.03;99.33
77325;BME280;66387;53.440;10.390;2023-07-20T00:47:12;100547.66;;;14.01;98.68
77325;BME280;66387;53.440;10.390;2023-07-20T00:49:37;100547.66;;;14.01;98.71
77325;BME280;66387;53.440;10.390;2023-07-20T00:52:05;100538.78;;;14.07;98.78
77325;BME280;66387;53.440;10.390;2023-07-20T00:54:31;100543.88;;;14.11;98.76
77325;BME280;66387;53.440;10.390;2023-07-20T00:56:57;100546.63;;;14.07;98.82
77325;BME280;66387;53.440;10.390;2023-07-20T00:59:23;100543.16;;;14.06;98.85
77325;BME280;66387;53.440;10.390;2023-07-20T01:01:49;100546.63;;;14.07;98.89
77325;BME280;66387;53.440;10.390;2023-07-20T01:04:14;100550.09;;;14.07;98.52
77325;BME280;66387;53.440;10.390;2023-07-20T01:06:53;100545.84;;;14.05;99.03
77325;BME280;66387;53.440;10.390;2023-07-20T01:09:44;100548.38;;;14.06;99.17
77325;BME280;66387;53.440;10.390;2023-07-20T01:12:20;100543.13;;;14.08;98.99
77325;BME280;66387;53.440;10.390;2023-07-20T01:14:48;100550.09;;;14.07;99.28
77325;BME280;66387;53.440;10.390;2023-07-20T01:17:13;100541.63;;;13.99;99.75
77325;BME280;66387;53.440;10.390;2023-07-20T01:19:39;100539.00;;;13.99;100.00
77325;BME280;66387;53.440;10.390;2023-07-20T01:22:47;100534.63;;;14.01;100.00
77325;BME280;66387;53.440;10.390;2023-07-20T01:25:34;100544.22;;;13.99;100.00
77325;BME280;66387;53.440;10.390;2023-07-20T01:33:38;100545.31;;;13.92;100.00
77325;BME280;66387;53.440;10.390;2023-07-20T01:36:07;100536.38;;;14.01;100.00
77325;BME280;66387;53.440;10.390;2023-07-20T01:38:33;100552.16;;;13.96;100.00
77325;BME280;66387;53.440;10.390;2023-07-20T01:40:58;100546.78;;;14.02;100.00
77325;BME280;66387;53.440;10.390;2023-07-20T01:43:24;100544.22;;;13.99;100.00
77325;BME280;66387;53.440;10.390;2023-07-20T01:45:49;100549.28;;;14.05;99.88
77325;BME280;66387;53.440;10.390;2023-07-20T01:48:14;100542.16;;;14.10;100.00
77325;BME280;66387;53.440;10.390;2023-07-20T01:50:40;100537.00;;;14.09;99.74
77325;BME280;66387;53.440;10.390;2023-07-20T01:53:05;100536.78;;;14.16;99.65
77325;BME280;66387;53.440;10.390;2023-07-20T01:55:30;100542.03;;;14.16;99.63
77325;BME280;66387;53.440;10.390;2023-07-20T01:57:55;100534.25;;;14.13;99.08
77325;BME280;66387;53.440;10.390;2023-07-20T02:00:21;100532.59;;;14.11;99.10
77325;BME280;66387;53.440;10.390;2023-07-20T02:02:49;100537.00;;;14.09;99.22
77325;BME280;66387;53.440;10.390;2023-07-20T02:05:15;100539.44;;;14.15;98.82
77325;BME280;66387;53.440;10.390;2023-07-20T02:07:40;100532.47;;;14.15;98.71
77325;BME280;66387;53.440;10.390;2023-07-20T02:10:06;100533.47;;;14.10;99.29
77325;BME280;66387;53.440;10.390;2023-07-20T02:12:31;100531.78;;;14.09;99.54
77325;BME280;66387;53.440;10.390;2023-07-20T02:14:56;100533.75;;;14.01;99.92
77325;BME280;66387;53.440;10.390;2023-07-20T02:17:22;100538.44;;;13.88;99.42
77325;BME280;66387;53.440;10.390;2023-07-20T02:19:50;100540.09;;;13.92;99.42
77325;BME280;66387;53.440;10.390;2023-07-20T02:22:15;100527.25;;;13.85;99.90
77325;BME280;66387;53.440;10.390;2023-07-20T02:24:41;100538.44;;;13.88;100.00
77325;BME280;66387;53.440;10.390;2023-07-20T02:27:07;100541.91;;;13.90;100.00
77325;BME280;66387;53.440;10.390;2023-07-20T02:29:32;100529.75;;;13.89;100.00
77325;BME280;66387;53.440;10.390;2023-07-20T02:31:57;100525.28;;;13.93;100.00
77325;BME280;66387;53.440;10.390;2023-07-20T02:34:23;100525.28;;;13.93;100.00
77325;BME280;66387;53.440;10.390;2023-07-20T02:36:48;100525.25;;;13.94;100.00
77325;BME280;66387;53.440;10.390;2023-07-20T02:39:14;100537.34;;;13.97;100.00
77325;BME280;66387;53.440;10.390;2023-07-20T02:41:39;100539.09;;;13.96;100.00
77325;BME280;66387;53.440;10.390;2023-07-20T02:44:04;100542.78;;;13.89;100.00
77325;BME280;66387;53.440;10.390;2023-07-20T02:46:29;100541.97;;;13.87;100.00
77325;BME280;66387;53.440;10.390;2023-07-20T02:48:55;100542.06;;;13.84;100.00
77325;BME280;66387;53.440;10.390;2023-07-20T02:51:20;100543.75;;;13.85;100.00
77325;BME280;66387;53.440;10.390;2023-07-20T02:53:45;100549.75;;;13.89;100.00
77325;BME280;66387;53.440;10.390;2023-07-20T02:56:11;100540.00;;;13.95;100.00
77325;BME280;66387;53.440;10.390;2023-07-20T02:58:40;100551.34;;;13.94;100.00
77325;BME280;66387;53.440;10.390;2023-07-20T03:01:08;100557.44;;;13.95;100.00
77325;BME280;66387;53.440;10.390;2023-07-20T03:03:35;100553.88;;;13.97;100.00
77325;BME280;66387;53.440;10.390;2023-07-20T03:06:06;100555.66;;;13.95;100.00
77325;BME280;66387;53.440;10.390;2023-07-20T03:08:33;100559.19;;;13.94;100.00
77325;BME280;66387;53.440;10.390;2023-07-20T03:10:59;100556.66;;;13.91;100.00
77325;BME280;66387;53.440;10.390;2023-07-20T03:13:24;100554.97;;;13.89;100.00
77325;BME280;66387;53.440;10.390;2023-07-20T03:15:49;100542.97;;;13.83;100.00
77325;BME280;66387;53.440;10.390;2023-07-20T03:18:14;100547.13;;;13.90;100.00
77325;BME280;66387;53.440;10.390;2023-07-20T03:20:40;100548.00;;;13.89;100.00
77325;BME280;66387;53.440;10.390;2023-07-20T03:23:05;100558.31;;;13.94;100.00
77325;BME280;66387;53.440;10.390;2023-07-20T03:25:30;100562.59;;;13.96;100.00
77325;BME280;66387;53.440;10.390;2023-07-20T03:27:56;100565.25;;;13.95;100.00
77325;BME280;66387;53.440;10.390;2023-07-20T03:30:21;100562.56;;;13.98;100.00
77325;BME280;66387;53.440;10.390;2023-07-20T03:32:46;100550.28;;;14.01;100.00
77325;BME280;66387;53.440;10.390;2023-07-20T03:35:11;100551.13;;;14.02;100.00
77325;BME280;66387;53.440;10.390;2023-07-20T03:37:37;100560.66;;;14.03;100.00
77325;BME280;66387;53.440;10.390;2023-07-20T03:40:03;100560.81;;;13.98;100.00
77325;BME280;66387;53.440;10.390;2023-07-20T03:42:30;100554.09;;;13.90;100.00
77325;BME280;66387;53.440;10.390;2023-07-20T03:44:55;100554.81;;;13.95;100.00
77325;BME280;66387;53.440;10.390;2023-07-20T03:47:21;100552.97;;;13.98;100.00
77325;BME280;66387;53.440;10.390;2023-07-20T03:49:46;100565.94;;;14.01;100.00
77325;BME280;66387;53.440;10.390;2023-07-20T03:52:11;100557.28;;;13.99;100.00
77325;BME280;66387;53.440;10.390;2023-07-20T03:54:37;100563.28;;;14.03;100.00
77325;BME280;66387;53.440;10.390;2023-07-20T03:57:02;100555.53;;;14.00;100.00
77325;BME280;66387;53.440;10.390;2023-07-20T03:59:27;100566.34;;;13.86;100.00
77325;BME280;66387;53.440;10.390;2023-07-20T04:01:53;100573.97;;;13.94;100.00
77325;BME280;66387;53.440;10.390;2023-07-20T04:04:18;100572.88;;;14.02;100.00
77325;BME280;66387;53.440;10.390;2023-07-20T04:06:44;100578.00;;;14.05;100.00
77325;BME280;66387;53.440;10.390;2023-07-20T04:09:09;100570.97;;;14.07;100.00
77325;BME280;66387;53.440;10.390;2023-07-20T04:11:35;100575.22;;;14.11;100.00
77325;BME280;66387;53.440;10.390;2023-07-20T04:14:00;100577.06;;;14.08;100.00
77325;BME280;66387;53.440;10.390;2023-07-20T04:16:25;100575.19;;;14.13;100.00
77325;BME280;66387;53.440;10.390;2023-07-20T04:18:52;100570.78;;;14.13;100.00
77325;BME280;66387;53.440;10.390;2023-07-20T04:21:17;100582.88;;;14.17;100.00
77325;BME280;66387;53.440;10.390;2023-07-20T04:23:42;100587.47;;;14.09;100.00
77325;BME280;66387;53.440;10.390;2023-07-20T04:26:07;100581.31;;;14.12;100.00
77325;BME280;66387;53.440;10.390;2023-07-20T04:28:33;100579.66;;;14.09;100.00
77325;BME280;66387;53.440;10.390;2023-07-20T04:31:15;100579.47;;;14.15;100.00
77325;BME280;66387;53.440;10.390;2023-07-20T04:33:40;100581.88;;;14.21;100.00
77325;BME280;66387;53.440;10.390;2023-07-20T04:36:06;100580.25;;;14.17;100.00
77325;BME280;66387;53.440;10.390;2023-07-20T04:38:32;100590.00;;;14.12;100.00
77325;BME280;66387;53.440;10.390;2023-07-20T04:40:57;100587.28;;;14.15;100.00
77325;BME280;66387;53.440;10.390;2023-07-20T04:43:23;100589.00;;;14.16;100.00
77325;BME280;66387;53.440;10.390;2023-07-20T04:45:48;100585.44;;;14.19;100.00
77325;BME280;66387;53.440;10.390;2023-07-20T04:48:15;100582.06;;;14.15;100.00
77325;BME280;66387;53.440;10.390;2023-07-20T04:50:42;100582.88;;;14.17;100.00
77325;BME280;66387;53.440;10.390;2023-07-20T04:53:09;100588.06;;;14.19;100.00
77325;BME280;66387;53.440;10.390;2023-07-20T04:55:35;100587.06;;;14.23;100.00
77325;BME280;66387;53.440;10.390;2023-07-20T04:58:02;100584.25;;;14.31;100.00
77325;BME280;66387;53.440;10.390;2023-07-20T05:00:28;100594.69;;;14.31;100.00
77325;BME280;66387;53.440;10.390;2023-07-20T05:02:54;100595.50;;;14.33;100.00
77325;BME280;66387;53.440;10.390;2023-07-20T05:05:19;100593.88;;;14.29;100.00
77325;BME280;66387;53.440;10.390;2023-07-20T05:07:44;100591.84;;;14.40;100.00
77325;BME280;66387;53.440;10.390;2023-07-20T05:10:10;100591.03;;;14.38;100.00
77325;BME280;66387;53.440;10.390;2023-07-20T05:12:35;100588.97;;;14.49;100.00
77325;BME280;66387;53.440;10.390;2023-07-20T05:15:00;100592.47;;;14.48;100.00
77325;BME280;66387;53.440;10.390;2023-07-20T05:17:25;100584.44;;;14.54;100.00
77325;BME280;66387;53.440;10.390;2023-07-20T05:19:51;100580.94;;;14.55;100.00
77325;BME280;66387;53.440;10.390;2023-07-20T05:22:16;100585.19;;;14.59;100.00
77325;BME280;66387;53.440;10.390;2023-07-20T05:24:41;100585.19;;;14.59;100.00
77325;BME280;66387;53.440;10.390;2023-07-20T05:27:07;100593.09;;;14.56;100.00
77325;BME280;66387;53.440;10.390;2023-07-20T05:29:32;100585.28;;;14.56;100.00
77325;BME280;66387;53.440;10.390;2023-07-20T05:31:58;100592.13;;;14.60;100.00
77325;BME280;66387;53.440;10.390;2023-07-20T05:34:23;100593.03;;;14.57;100.00
77325;BME280;66387;53.440;10.390;2023-07-20T05:36:48;100593.81;;;14.61;100.00
77325;BME280;66387;53.440;10.390;2023-07-20T05:39:16;100591.03;;;14.67;100.00
77325;BME280;66387;53.440;10.390;2023-07-20T05:41:41;100598.88;;;14.67;100.00
77325;BME280;66387;53.440;10.390;2023-07-20T05:44:07;100593.66;;;14.67;100.00
77325;BME280;66387;53.440;10.390;2023-07-20T05:46:32;100590.91;;;14.71;100.00
77325;BME280;66387;53.440;10.390;2023-07-20T05:48:57;100595.28;;;14.71;100.00
77325;BME280;66387;53.440;10.390;2023-07-20T05:51:22;100593.19;;;14.82;100.00
77325;BME280;66387;53.440;10.390;2023-07-20T05:53:47;100590.72;;;14.78;100.00
77325;BME280;66387;53.440;10.390;2023-07-20T05:56:13;100584.41;;;14.83;100.00
77325;BME280;66387;53.440;10.390;2023-07-20T05:58:39;100591.16;;;14.90;100.00
77325;BME280;66387;53.440;10.390;2023-07-20T06:01:04;100597.31;;;14.89;99.49
77325;BME280;66387;53.440;10.390;2023-07-20T06:03:31;100592.88;;;14.91;99.26
77325;BME280;66387;53.440;10.390;2023-07-20T06:05:59;100592.63;;;15.00;99.62
77325;BME280;66387;53.440;10.390;2023-07-20T06:08:26;100595.91;;;15.05;100.00
77325;BME280;66387;53.440;10.390;2023-07-20T06:10:51;100601.16;;;15.05;98.08
77325;BME280;66387;53.440;10.390;2023-07-20T06:13:17;100604.47;;;15.10;98.37
77325;BME280;66387;53.440;10.390;2023-07-20T06:15:42;100598.88;;;15.23;99.48
77325;BME280;66387;53.440;10.390;2023-07-20T06:18:08;100601.31;;;15.27;98.39
77325;BME280;66387;53.440;10.390;2023-07-20T06:20:34;100602.06;;;15.31;98.80
77325;BME280;66387;53.440;10.390;2023-07-20T06:22:59;100601.38;;;15.26;96.34
77325;BME280;66387;53.440;10.390;2023-07-20T06:25:24;100596.94;;;15.28;95.80
77325;BME280;66387;53.440;10.390;2023-07-20T06:27:50;100599.16;;;15.40;97.76
77325;BME280;66387;53.440;10.390;2023-07-20T06:30:19;100598.06;;;15.47;97.26
77325;BME280;66387;53.440;10.390;2023-07-20T06:32:44;100605.78;;;15.51;97.09
77325;BME280;66387;53.440;10.390;2023-07-20T06:35:10;100610.09;;;15.52;97.20
77325;BME280;66387;53.440;10.390;2023-07-20T06:37:35;100607.66;;;15.46;96.53
77325;BME280;66387;53.440;10.390;2023-07-20T06:40:02;100603.19;;;15.51;95.19
77325;BME280;66387;53.440;10.390;2023-07-20T06:42:28;100607.59;;;15.49;94.22
77325;BME280;66387;53.440;10.390;2023-07-20T06:44:53;100606.66;;;15.52;96.22
77325;BME280;66387;53.440;10.390;2023-07-20T06:47:18;100605.72;;;15.53;93.36
77325;BME280;66387;53.440;10.390;2023-07-20T06:49:43;100613.16;;;15.65;95.25
77325;BME280;66387;53.440;10.390;2023-07-20T06:52:09;100612.69;;;15.79;94.91
77325;BME280;66387;53.440;10.390;2023-07-20T06:54:34;100611.72;;;15.81;94.39
77325;BME280;66387;53.440;10.390;2023-07-20T06:56:59;100607.81;;;15.93;93.92
77325;BME280;66387;53.440;10.390;2023-07-20T06:59:24;100612.88;;;15.99;94.16
77325;BME280;66387;53.440;10.390;2023-07-20T07:01:50;100606.66;;;16.01;91.78
77325;BME280;66387;53.440;10.390;2023-07-20T07:04:15;100601.91;;;16.12;91.46
77325;BME280;66387;53.440;10.390;2023-07-20T07:06:40;100604.88;;;16.27;91.37
77325;BME280;66387;53.440;10.390;2023-07-20T07:09:06;100606.81;;;16.45;91.45
77325;BME280;66387;53.440;10.390;2023-07-20T07:11:33;100609.53;;;16.42;89.78
77325;BME280;66387;53.440;10.390;2023-07-20T07:13:58;100610.22;;;16.47;91.67
77325;BME280;66387;53.440;10.390;2023-07-20T07:16:23;100607.59;;;16.47;90.00
77325;BME280;66387;53.440;10.390;2023-07-20T07:18:50;100605.72;;;16.50;85.48
77325;BME280;66387;53.440;10.390;2023-07-20T07:21:16;100602.63;;;16.64;87.65
77325;BME280;66387;53.440;10.390;2023-07-20T07:23:41;100603.13;;;16.74;88.87
77325;BME280;66387;53.440;10.390;2023-07-20T07:26:06;100604.88;;;16.73;86.44
77325;BME280;66387;53.440;10.390;2023-07-20T07:28:32;100594.75;;;16.64;83.57
77325;BME280;66387;53.440;10.390;2023-07-20T07:30:57;100599.28;;;16.82;83.83
77325;BME280;66387;53.440;10.390;2023-07-20T07:33:23;100604.41;;;16.85;83.10
77325;BME280;66387;53.440;10.390;2023-07-20T07:35:49;100606.72;;;16.71;83.83
77325;BME280;66387;53.440;10.390;2023-07-20T07:38:14;100603.13;;;16.74;84.61
77325;BME280;66387;53.440;10.390;2023-07-20T07:40:40;100611.59;;;16.80;85.52
77325;BME280;66387;53.440;10.390;2023-07-20T07:43:05;100608.50;;;16.92;82.92
77325;BME280;66387;53.440;10.390;2023-07-20T07:45:34;100613.16;;;17.07;83.87
77325;BME280;66387;53.440;10.390;2023-07-20T07:48:00;100610.88;;;17.20;83.57
77325;BME280;66387;53.440;10.390;2023-07-20T07:50:26;100611.19;;;17.12;81.88
77325;BME280;66387;53.440;10.390;2023-07-20T07:52:52;100611.59;;;17.02;79.07
77325;BME280;66387;53.440;10.390;2023-07-20T07:55:18;100616.69;;;17.06;78.08
77325;BME280;66387;53.440;10.390;2023-07-20T07:57:44;100620.63;;;17.16;78.04
77325;BME280;66387;53.440;10.390;2023-07-20T08:00:10;100618.63;;;17.23;75.07
77325;BME280;66387;53.440;10.390;2023-07-20T08:02:43;100626.91;;;17.34;74.49
77325;BME280;66387;53.440;10.390;2023-07-20T08:05:09;100608.84;;;17.48;75.96
77325;BME280;66387;53.440;10.390;2023-07-20T08:07:36;100612.88;;;17.57;75.21
77325;BME280;66387;53.440;10.390;2023-07-20T08:10:02;100606.00;;;17.53;70.07
77325;BME280;66387;53.440;10.390;2023-07-20T08:12:28;100617.44;;;17.52;70.79
77325;BME280;66387;53.440;10.390;2023-07-20T08:14:54;100623.16;;;17.63;71.76
77325;BME280;66387;53.440;10.390;2023-07-20T08:17:20;100619.44;;;17.67;70.79
77325;BME280;66387;53.440;10.390;2023-07-20T08:19:46;100616.16;;;17.82;71.36
77325;BME280;66387;53.440;10.390;2023-07-20T08:22:13;100621.41;;;17.82;71.95
77325;BME280;66387;53.440;10.390;2023-07-20T08:24:40;100622.81;;;17.91;70.56
77325;BME280;66387;53.440;10.390;2023-07-20T08:27:06;100625.97;;;17.99;69.17
77325;BME280;66387;53.440;10.390;2023-07-20T08:29:32;100621.03;;;18.11;66.44
77325;BME280;66387;53.440;10.390;2023-07-20T08:31:58;100633.78;;;17.80;66.07
77325;BME280;66387;53.440;10.390;2023-07-20T08:34:23;100625.81;;;17.40;68.26
77325;BME280;66387;53.440;10.390;2023-07-20T08:36:48;100639.72;;;17.42;70.12
77325;BME280;66387;53.440;10.390;2023-07-20T08:39:13;100635.91;;;17.29;69.30
77325;BME280;66387;53.440;10.390;2023-07-20T08:41:41;100639.69;;;17.22;69.18
77325;BME280;66387;53.440;10.390;2023-07-20T08:44:08;100638.38;;;17.10;67.52
77325;BME280;66387;53.440;10.390;2023-07-20T08:46:34;100643.50;;;17.35;66.95
77325;BME280;66387;53.440;10.390;2023-07-20T08:49:00;100642.56;;;17.59;67.19
77325;BME280;66387;53.440;10.390;2023-07-20T08:51:27;100631.00;;;17.83;67.62
77325;BME280;66387;53.440;10.390;2023-07-20T08:53:53;100632.38;;;18.12;67.18
77325;BME280;66387;53.440;10.390;2023-07-20T08:56:19;100631.72;;;18.27;64.75
77325;BME280;66387;53.440;10.390;2023-07-20T08:58:46;100619.19;;;18.13;66.46
77325;BME280;66387;53.440;10.390;2023-07-20T09:01:12;100631.72;;;18.07;65.14
77325;BME280;66387;53.440;10.390;2023-07-20T09:03:38;100629.38;;;18.01;64.16
77325;BME280;66387;53.440;10.390;2023-07-20T09:06:05;100641.00;;;18.16;63.64
77325;BME280;66387;53.440;10.390;2023-07-20T09:08:30;100634.88;;;18.35;65.10
77325;BME280;66387;53.440;10.390;2023-07-20T09:10:56;100630.94;;;18.64;62.75
77325;BME280;66387;53.440;10.390;2023-07-20T09:13:21;100638.75;;;18.84;61.82
77325;BME280;66387;53.440;10.390;2023-07-20T09:15:47;100638.47;;;18.53;60.62
77325;BME280;66387;53.440;10.390;2023-07-20T09:18:23;100637.78;;;18.68;60.52
77325;BME280;66387;53.440;10.390;2023-07-20T09:20:49;100631.22;;;18.95;60.23
77325;BME280;66387;53.440;10.390;2023-07-20T09:23:14;100632.41;;;18.88;58.63
77325;BME280;66387;53.440;10.390;2023-07-20T09:25:40;100643.66;;;18.92;59.22
77325;BME280;66387;53.440;10.390;2023-07-20T09:28:05;100638.94;;;19.17;59.86
77325;BME280;66387;53.440;10.390;2023-07-20T09:30:31;100639.16;;;19.13;57.26
77325;BME280;66387;53.440;10.390;2023-07-20T09:32:56;100631.19;;;19.14;59.79
77325;BME280;66387;53.440;10.390;2023-07-20T09:35:22;100636.41;;;18.78;58.69
77325;BME280;66387;53.440;10.390;2023-07-20T09:37:58;100635.75;;;18.73;60.37
77325;BME280;66387;53.440;10.390;2023-07-20T09:40:25;100644.44;;;18.56;60.79
77325;BME280;66387;53.440;10.390;2023-07-20T09:42:52;100656.09;;;18.88;61.46
77325;BME280;66387;53.440;10.390;2023-07-20T09:45:18;100645.88;;;18.82;60.36
77325;BME280;66387;53.440;10.390;2023-07-20T09:47:44;100650.78;;;18.90;60.87
77325;BME280;66387;53.440;10.390;2023-07-20T09:50:09;100645.06;;;18.99;60.01
77325;BME280;66387;53.440;10.390;2023-07-20T09:52:38;100629.19;;;19.19;59.00
77325;BME280;66387;53.440;10.390;2023-07-20T09:55:09;100635.41;;;19.54;58.50
77325;BME280;66387;53.440;10.390;2023-07-20T09:57:36;100631.69;;;19.92;59.93
77325;BME280;66387;53.440;10.390;2023-07-20T10:00:06;100633.13;;;20.15;56.00
77325;BME280;66387;53.440;10.390;2023-07-20T10:02:41;100627.00;;;20.32;53.87
77325;BME280;66387;53.440;10.390;2023-07-20T10:05:09;100628.09;;;20.11;52.91
77325;BME280;66387;53.440;10.390;2023-07-20T10:07:47;100623.34;;;19.67;53.45
77325;BME280;66387;53.440;10.390;2023-07-20T10:10:17;100635.88;;;19.62;53.67
77325;BME280;66387;53.440;10.390;2023-07-20T10:12:44;100639.69;;;19.38;56.65
77325;BME280;66387;53.440;10.390;2023-07-20T10:15:36;100652.25;;;18.95;63.56
77325;BME280;66387;53.440;10.390;2023-07-20T10:18:22;100657.28;;;18.03;71.13
77325;BME280;66387;53.440;10.390;2023-07-20T10:20:51;100657.66;;;17.52;75.40
77325;BME280;66387;53.440;10.390;2023-07-20T10:23:17;100665.31;;;17.15;80.65
77325;BME280;66387;53.440;10.390;2023-07-20T10:25:42;100657.25;;;16.75;81.13
77325;BME280;66387;53.440;10.390;2023-07-20T10:28:08;100660.66;;;16.77;80.41
77325;BME280;66387;53.440;10.390;2023-07-20T10:30:35;100662.34;;;16.79;83.20
77325;BME280;66387;53.440;10.390;2023-07-20T10:33:04;100661.84;;;16.91;79.94
77325;BME280;66387;53.440;10.390;2023-07-20T10:35:50;100668.66;;;17.19;76.03
77325;BME280;66387;53.440;10.390;2023-07-20T10:38:15;100658.28;;;17.37;76.26
77325;BME280;66387;53.440;10.390;2023-07-20T10:40:41;100657.41;;;17.80;74.84
77325;BME280;66387;53.440;10.390;2023-07-20T10:43:07;100651.50;;;17.95;72.00
77325;BME280;66387;53.440;10.390;2023-07-20T10:45:36;100654.84;;;18.39;71.65
77325;BME280;66387;53.440;10.390;2023-07-20T10:48:05;100642.22;;;18.66;69.14
77325;BME280;66387;53.440;10.390;2023-07-20T10:50:32;100632.06;;;18.77;65.81
77325;BME280;66387;53.440;10.390;2023-07-20T10:53:10;100644.84;;;19.03;63.15
77325;BME280;66387;53.440;10.390;2023-07-20T10:55:35;100637.16;;;19.18;64.09
77325;BME280;66387;53.440;10.390;2023-07-20T10:58:21;100635.00;;;19.26;62.89
77325;BME280;66387;53.440;10.390;2023-07-20T11:01:02;100640.13;;;19.65;62.36
77325;BME280;66387;53.440;10.390;2023-07-20T11:03:33;100637.16;;;20.05;61.30
77325;BME280;66387;53.440;10.390;2023-07-20T11:05:59;100637.78;;;20.10;60.83
77325;BME280;66387;53.440;10.390;2023-07-20T11:08:43;100629.94;;;20.43;58.54
77325;BME280;66387;53.440;10.390;2023-07-20T11:11:29;100627.50;;;20.87;60.67
77325;BME280;66387;53.440;10.390;2023-07-20T11:16:43;100620.72;;;21.14;56.29
77325;BME280;66387;53.440;10.390;2023-07-20T11:19:23;100622.81;;;21.39;55.47
77325;BME280;66387;53.440;10.390;2023-07-20T11:21:54;100637.06;;;21.21;54.21
77325;BME280;66387;53.440;10.390;2023-07-20T11:24:20;100628.75;;;21.72;53.51
77325;BME280;66387;53.440;10.390;2023-07-20T11:26:47;100629.53;;;21.74;53.38
77325;BME280;66387;53.440;10.390;2023-07-20T11:29:15;100641.13;;;21.42;55.31
77325;BME280;66387;53.440;10.390;2023-07-20T11:31:42;100653.22;;;20.99;56.27
77325;BME280;66387;53.440;10.390;2023-07-20T11:34:11;100651.72;;;20.29;57.52
77325;BME280;66387;53.440;10.390;2023-07-20T11:36:38;100646.28;;;20.15;57.51
77325;BME280;66387;53.440;10.390;2023-07-20T11:39:03;100650.94;;;20.44;55.02
77325;BME280;66387;53.440;10.390;2023-07-20T11:41:30;100645.63;;;20.93;52.12
77325;BME280;66387;53.440;10.390;2023-07-20T11:43:56;100639.63;;;21.22;52.25
77325;BME280;66387;53.440;10.390;2023-07-20T11:46:22;100650.59;;;21.15;52.87
77325;BME280;66387;53.440;10.390;2023-07-20T11:48:47;100651.34;;;21.17;52.80
77325;BME280;66387;53.440;10.390;2023-07-20T11:51:14;100653.06;;;21.49;53.45
77325;BME280;66387;53.440;10.390;2023-07-20T11:53:41;100653.44;;;21.57;52.66
77325;BME280;66387;53.440;10.390;2023-07-20T11:56:06;100634.72;;;21.91;54.56
77325;BME280;66387;53.440;10.390;2023-07-20T11:58:31;100656.31;;;21.38;52.22
77325;BME280;66387;53.440;10.390;2023-07-20T12:00:57;100658.25;;;21.03;51.14
77325;BME280;66387;53.440;10.390;2023-07-20T12:03:22;100657.09;;;20.61;50.61
77325;BME280;66387;53.440;10.390;2023-07-20T12:05:47;100665.69;;;20.31;51.05
77325;BME280;66387;53.440;10.390;2023-07-20T12:08:14;100662.66;;;20.04;51.61
77325;BME280;66387;53.440;10.390;2023-07-20T12:10:41;100671.34;;;19.89;52.96
77325;BME280;66387;53.440;10.390;2023-07-20T12:13:09;100677.63;;;19.70;54.31
77325;BME280;66387;53.440;10.390;2023-07-20T12:15:35;100677.63;;;19.70;54.66
77325;BME280;66387;53.440;10.390;2023-07-20T12:18:02;100670.47;;;19.54;55.65
77325;BME280;66387;53.440;10.390;2023-07-20T12:20:29;100678.69;;;19.48;55.80
77325;BME280;66387;53.440;10.390;2023-07-20T12:23:00;100678.06;;;19.61;57.37
77325;BME280;66387;53.440;10.390;2023-07-20T12:25:45;100678.78;;;19.64;56.20
77325;BME280;66387;53.440;10.390;2023-07-20T12:28:12;100675.34;;;19.45;56.12
77325;BME280;66387;53.440;10.390;2023-07-20T12:30:39;100681.03;;;19.72;56.60
77325;BME280;66387;53.440;10.390;2023-07-20T12:33:05;100667.72;;;19.92;55.75
77325;BME280;66387;53.440;10.390;2023-07-20T12:35:31;100663.69;;;20.02;55.19
77325;BME280;66387;53.440;10.390;2023-07-20T12:37:57;100660.88;;;20.22;55.90
77325;BME280;66387;53.440;10.390;2023-07-20T12:40:23;100673.97;;;20.24;55.01
77325;BME280;66387;53.440;10.390;2023-07-20T12:42:48;100657.28;;;20.40;55.16
77325;BME280;66387;53.440;10.390;2023-07-20T12:45:14;100658.25;;;20.55;54.39